»·PEaware :: N149CD KVNY-KGCN

N149CD :: KVNY-KGCN

FLIGHT INFORMATION

Flight Status: Arrived
Operator: Privately registered:
United States
More flights under this callsign
Pilot: Nathan E. (30132)
Aircraft: CIRRUS VISIONJET
(SF50)
More flights by this aircraft type
Origin: KVNY Van Nuys
United States
Destination: KGCN Grand Canyon Natl Park
United States
More flights between these airports :: More routes between these airports
Route: NUAL1 PMD V12 HEC V210 GUCRU
File this flight plan on PilotEdge
Remarks:
Altitude:
(Current/Filed)
28,000ft
Speed:
(Current/Filed)
300kts
Departed: 21-Dec-20 12:58 PM
Arrived: 21-Dec-20 02:18 PM
Distance/Time
Traveled:
329nm/1:20
Distance/Time
To Go:
Arrived

Flight Plot

Page will automatically refresh every two minutes.

Flight plan parsing failed; only flown route is shown


Map Options




Map Legend


Flown Route
Filed Route
Departure Airport
Arrival Airport
Navaid (VOR, NDB)
Fix

Horizontal Profiles

Position Reports

Time Latitude Longitude Heading Altitude Ground
Speed
21-Dec-20 12:27 34.208083 -118.491775 90 805ft 0kts
21-Dec-20 12:28 34.208083 -118.491775 90 805ft 0kts
21-Dec-20 12:29 34.208083 -118.491775 90 805ft 0kts
21-Dec-20 12:30 34.208083 -118.491775 90 805ft 0kts
21-Dec-20 12:31 34.208083 -118.491775 90 805ft 0kts
21-Dec-20 12:32 34.208083 -118.491775 90 805ft 0kts
21-Dec-20 12:33 34.208083 -118.491775 90 805ft 0kts
21-Dec-20 12:34 34.208083 -118.491775 90 805ft 0kts
21-Dec-20 12:35 34.208083 -118.491775 90 805ft 0kts
21-Dec-20 12:36 34.208083 -118.491775 90 805ft 0kts
21-Dec-20 12:38 34.208083 -118.491775 90 805ft 0kts
21-Dec-20 12:39 34.208083 -118.491775 90 805ft 0kts
21-Dec-20 12:40 34.208083 -118.491775 90 805ft 0kts
21-Dec-20 12:41 34.208083 -118.491775 90 805ft 0kts
21-Dec-20 12:42 34.208083 -118.491775 90 805ft 0kts
21-Dec-20 12:43 34.208083 -118.491775 90 805ft 0kts
21-Dec-20 12:44 34.208083 -118.491775 90 805ft 0kts
21-Dec-20 12:45 34.208083 -118.491775 90 805ft 0kts
21-Dec-20 12:46 34.208083 -118.491775 90 805ft 0kts
21-Dec-20 12:47 34.208083 -118.491775 90 805ft 0kts
21-Dec-20 12:48 34.208083 -118.491775 90 805ft 0kts
21-Dec-20 12:49 34.208083 -118.491775 90 805ft 0kts
21-Dec-20 12:49 34.208083 -118.491775 90 805ft 0kts
21-Dec-20 12:51 34.208083 -118.491775 90 805ft 0kts
21-Dec-20 12:52 34.208083 -118.491775 90 805ft 0kts
21-Dec-20 12:53 34.211163 -118.491667 356 805ft 19kts
21-Dec-20 12:53 34.215959 -118.492205 356 805ft 19kts
21-Dec-20 12:55 34.219029 -118.492169 98 805ft 0kts
21-Dec-20 12:56 34.219029 -118.492169 98 805ft 0kts
21-Dec-20 12:56 34.219029 -118.492169 98 805ft 0kts
21-Dec-20 12:57 34.216621 -118.491019 175 805ft 65kts
21-Dec-20 12:58 34.179442 -118.487428 175 1907ft 169kts
21-Dec-20 13:00 34.143474 -118.462591 126 3654ft 123kts
21-Dec-20 13:00 34.124746 -118.431230 125 4030ft 170kts
21-Dec-20 13:01 34.118423 -118.383448 16 4945ft 179kts
21-Dec-20 13:02 34.166348 -118.385379 7 7737ft 177kts
21-Dec-20 13:03 34.215942 -118.376698 9 8682ft 183kts
21-Dec-20 13:04 34.266605 -118.367524 9 9607ft 185kts
21-Dec-20 13:05 34.318033 -118.358201 9 10469ft 188kts
21-Dec-20 13:06 34.370552 -118.348667 9 11741ft 200kts
21-Dec-20 13:07 34.426523 -118.338503 9 14082ft 207kts
21-Dec-20 13:08 34.475028 -118.311151 46 16439ft 199kts
21-Dec-20 13:09 34.508720 -118.259933 50 18687ft 191kts
21-Dec-20 13:10 34.539885 -118.210367 49 20761ft 181kts
21-Dec-20 13:11 34.569456 -118.163060 48 22632ft 172kts
21-Dec-20 13:12 34.597575 -118.118010 46 24273ft 164kts
21-Dec-20 13:13 34.624413 -118.074966 45 25677ft 158kts
21-Dec-20 13:14 34.635563 -118.022347 73 26852ft 164kts
21-Dec-20 13:15 34.642615 -117.962192 76 27226ft 213kts
21-Dec-20 13:16 34.651566 -117.880151 78 27213ft 272kts
21-Dec-20 13:17 34.662033 -117.783233 78 27206ft 304kts
21-Dec-20 13:18 34.673009 -117.680707 78 27881ft 299kts
21-Dec-20 13:19 34.683507 -117.582201 78 28873ft 289kts
21-Dec-20 13:20 34.693913 -117.483835 78 29214ft 306kts
21-Dec-20 13:21 34.704999 -117.378106 79 29213ft 322kts
21-Dec-20 13:22 34.716391 -117.268675 79 29208ft 330kts
21-Dec-20 13:23 34.727888 -117.157159 79 29208ft 334kts
21-Dec-20 13:24 34.739332 -117.045136 85 29208ft 335kts
21-Dec-20 13:25 34.750727 -116.932183 85 29206ft 336kts
21-Dec-20 13:26 34.762008 -116.819478 85 29197ft 337kts
21-Dec-20 13:27 34.773260 -116.706040 85 29184ft 338kts
21-Dec-20 13:28 34.784444 -116.592071 83 29181ft 342kts
21-Dec-20 13:29 34.795681 -116.476689 83 29192ft 346kts
21-Dec-20 13:30 34.823155 -116.364475 71 29198ft 347kts
21-Dec-20 13:31 34.852732 -116.252685 71 29201ft 347kts
21-Dec-20 13:32 34.882241 -116.140687 71 29219ft 347kts
21-Dec-20 13:33 34.911604 -116.028788 72 29212ft 347kts
21-Dec-20 13:34 34.940880 -115.916706 72 29204ft 346kts
21-Dec-20 13:35 34.969946 -115.804958 73 29207ft 344kts
21-Dec-20 13:36 34.998569 -115.694449 73 29220ft 342kts
21-Dec-20 13:37 35.027074 -115.583956 73 29196ft 340kts
21-Dec-20 13:38 35.055252 -115.474237 73 29168ft 338kts
21-Dec-20 13:39 35.083153 -115.365130 73 29162ft 337kts
21-Dec-20 13:40 35.110975 -115.255965 74 29143ft 336kts
21-Dec-20 13:41 35.140220 -115.147722 70 29109ft 336kts
21-Dec-20 13:42 35.174083 -115.038082 70 28340ft 351kts
21-Dec-20 13:43 35.208707 -114.926058 70 27543ft 354kts
21-Dec-20 13:44 35.243402 -114.813363 70 26740ft 354kts
21-Dec-20 13:45 35.278052 -114.700377 70 25937ft 354kts
21-Dec-20 13:46 35.312483 -114.587660 70 25149ft 353kts
21-Dec-20 13:47 35.346112 -114.477101 70 24747ft 347kts
21-Dec-20 13:48 35.379762 -114.366073 70 23951ft 350kts
21-Dec-20 13:49 35.413541 -114.254191 71 23194ft 349kts
21-Dec-20 13:50 35.446310 -114.145226 71 23191ft 334kts
21-Dec-20 13:51 35.467675 -114.034453 81 22576ft 343kts
21-Dec-20 13:52 35.485016 -113.917735 81 21576ft 349kts
21-Dec-20 13:53 35.502129 -113.801030 81 20586ft 332kts
21-Dec-20 13:54 35.518757 -113.686712 81 19580ft 345kts
21-Dec-20 13:55 35.535621 -113.570077 81 18582ft 348kts
21-Dec-20 13:56 35.552448 -113.452850 80 17580ft 347kts
21-Dec-20 13:57 35.569161 -113.335582 81 16582ft 350kts
21-Dec-20 13:58 35.585873 -113.217468 81 15581ft 350kts
21-Dec-20 13:59 35.601060 -113.109377 81 14576ft 310kts
21-Dec-20 14:00 35.615469 -113.006096 81 13577ft 305kts
21-Dec-20 14:01 35.629613 -112.904075 81 12576ft 298kts
21-Dec-20 14:02 35.643354 -112.804341 80 11574ft 293kts
21-Dec-20 14:03 35.656741 -112.706605 80 10570ft 287kts
21-Dec-20 14:04 35.669541 -112.612558 80 10051ft 263kts
21-Dec-20 14:05 35.680407 -112.532269 80 10052ft 219kts
21-Dec-20 14:06 35.689718 -112.463127 81 10052ft 194kts
21-Dec-20 14:07 35.706864 -112.406514 47 9950ft 175kts
21-Dec-20 14:08 35.743825 -112.366418 42 9148ft 179kts
21-Dec-20 14:09 35.781517 -112.326872 42 9064ft 177kts
21-Dec-20 14:10 35.817175 -112.289193 39 9213ft 150kts
21-Dec-20 14:11 35.844811 -112.260264 44 8990ft 99kts
21-Dec-20 14:12 35.866307 -112.237595 43 8548ft 102kts
21-Dec-20 14:13 35.887519 -112.215280 43 8020ft 99kts
21-Dec-20 14:14 35.908518 -112.193176 43 7478ft 97kts
21-Dec-20 14:15 35.929171 -112.171512 43 6935ft 93kts
21-Dec-20 14:16 35.946817 -112.152811 40 6563ft 48kts
21-Dec-20 14:17 35.951991 -112.146442 131 6591ft 0kts
21-Dec-20 14:19 35.954183 -112.143279 41 6604ft 16kts
21-Dec-20 14:20 35.954539 -112.142369 219 6610ft 0kts
21-Dec-20 14:21 35.954539 -112.142369 219 6610ft 0kts

Navigation Log

Ident Type
Flight plan parsing failed, navigation log unavailable